sensor_id;sensor_type;location;lat;lon;timestamp;temperature;humidity
34815;DHT22;21030;53.912;15.214;2022-08-03T00:01:29;40.70;26.20
34815;DHT22;21030;53.912;15.214;2022-08-03T00:03:56;40.90;26.00
34815;DHT22;21030;53.912;15.214;2022-08-03T00:06:23;41.00;25.90
34815;DHT22;21030;53.912;15.214;2022-08-03T00:08:50;41.10;25.90
34815;DHT22;21030;53.912;15.214;2022-08-03T00:11:17;41.10;26.40
34815;DHT22;21030;53.912;15.214;2022-08-03T00:13:44;41.20;25.70
34815;DHT22;21030;53.912;15.214;2022-08-03T00:16:11;41.30;25.60
34815;DHT22;21030;53.912;15.214;2022-08-03T00:18:39;41.40;25.50
34815;DHT22;21030;53.912;15.214;2022-08-03T00:21:06;41.40;25.50
34815;DHT22;21030;53.912;15.214;2022-08-03T00:23:34;41.40;25.60
34815;DHT22;21030;53.912;15.214;2022-08-03T00:26:19;41.40;25.60
34815;DHT22;21030;53.912;15.214;2022-08-03T00:28:47;41.40;25.60
34815;DHT22;21030;53.912;15.214;2022-08-03T00:31:14;41.30;25.60
34815;DHT22;21030;53.912;15.214;2022-08-03T00:33:47;41.10;25.70
34815;DHT22;21030;53.912;15.214;2022-08-03T00:36:26;40.80;25.90
34815;DHT22;21030;53.912;15.214;2022-08-03T00:38:53;40.90;26.60
34815;DHT22;21030;53.912;15.214;2022-08-03T00:41:22;41.00;26.00
34815;DHT22;21030;53.912;15.214;2022-08-03T00:43:50;40.80;25.90
34815;DHT22;21030;53.912;15.214;2022-08-03T00:46:16;40.80;26.00
34815;DHT22;21030;53.912;15.214;2022-08-03T00:48:51;40.90;26.60
34815;DHT22;21030;53.912;15.214;2022-08-03T00:51:19;41.00;25.90
34815;DHT22;21030;53.912;15.214;2022-08-03T00:53:47;41.20;25.80
34815;DHT22;21030;53.912;15.214;2022-08-03T00:56:15;41.30;25.70
34815;DHT22;21030;53.912;15.214;2022-08-03T00:58:43;41.50;25.60
34815;DHT22;21030;53.912;15.214;2022-08-03T01:01:11;41.50;25.60
34815;DHT22;21030;53.912;15.214;2022-08-03T01:03:39;41.60;25.60
34815;DHT22;21030;53.912;15.214;2022-08-03T01:06:26;41.50;25.70
34815;DHT22;21030;53.912;15.214;2022-08-03T01:09:18;41.40;25.90
34815;DHT22;21030;53.912;15.214;2022-08-03T01:12:10;41.40;25.70
34815;DHT22;21030;53.912;15.214;2022-08-03T01:14:57;41.40;25.80
34815;DHT22;21030;53.912;15.214;2022-08-03T01:18:08;41.40;25.80
34815;DHT22;21030;53.912;15.214;2022-08-03T01:20:31;41.50;25.60
34815;DHT22;21030;53.912;15.214;2022-08-03T01:31:26;41.40;25.50
34815;DHT22;21030;53.912;15.214;2022-08-03T01:34:00;41.40;25.50
34815;DHT22;21030;53.912;15.214;2022-08-03T01:36:35;41.40;25.60
34815;DHT22;21030;53.912;15.214;2022-08-03T01:39:05;41.40;25.70
34815;DHT22;21030;53.912;15.214;2022-08-03T01:41:39;41.30;25.70
34815;DHT22;21030;53.912;15.214;2022-08-03T01:44:09;41.30;25.80
34815;DHT22;21030;53.912;15.214;2022-08-03T01:46:58;41.30;25.90
34815;DHT22;21030;53.912;15.214;2022-08-03T01:49:28;41.40;25.80
34815;DHT22;21030;53.912;15.214;2022-08-03T01:51:56;41.50;25.70
34815;DHT22;21030;53.912;15.214;2022-08-03T01:54:44;41.60;25.50
34815;DHT22;21030;53.912;15.214;2022-08-03T01:57:12;41.60;25.50
34815;DHT22;21030;53.912;15.214;2022-08-03T01:59:41;41.60;25.60
34815;DHT22;21030;53.912;15.214;2022-08-03T02:02:11;41.60;25.50
34815;DHT22;21030;53.912;15.214;2022-08-03T02:05:00;41.60;25.40
34815;DHT22;21030;53.912;15.214;2022-08-03T02:07:29;41.60;25.40
34815;DHT22;21030;53.912;15.214;2022-08-03T02:09:58;41.50;25.50
34815;DHT22;21030;53.912;15.214;2022-08-03T02:12:27;41.50;25.40
34815;DHT22;21030;53.912;15.214;2022-08-03T02:14:56;41.60;25.60
34815;DHT22;21030;53.912;15.214;2022-08-03T02:17:26;41.60;25.60
34815;DHT22;21030;53.912;15.214;2022-08-03T02:20:10;41.60;25.70
34815;DHT22;21030;53.912;15.214;2022-08-03T02:22:39;41.60;25.50
34815;DHT22;21030;53.912;15.214;2022-08-03T02:25:11;41.60;25.40
34815;DHT22;21030;53.912;15.214;2022-08-03T02:27:50;41.60;25.30
34815;DHT22;21030;53.912;15.214;2022-08-03T02:30:20;41.60;25.40
34815;DHT22;21030;53.912;15.214;2022-08-03T02:32:54;41.60;25.20
34815;DHT22;21030;53.912;15.214;2022-08-03T02:35:24;41.50;25.10
34815;DHT22;21030;53.912;15.214;2022-08-03T02:37:56;41.40;25.10
34815;DHT22;21030;53.912;15.214;2022-08-03T02:40:27;41.60;25.10
34815;DHT22;21030;53.912;15.214;2022-08-03T02:42:59;41.60;25.20
34815;DHT22;21030;53.912;15.214;2022-08-03T02:45:28;41.60;25.10
34815;DHT22;21030;53.912;15.214;2022-08-03T02:48:00;41.50;25.00
34815;DHT22;21030;53.912;15.214;2022-08-03T02:50:31;41.30;25.20
34815;DHT22;21030;53.912;15.214;2022-08-03T02:53:00;41.00;25.50
34815;DHT22;21030;53.912;15.214;2022-08-03T02:55:29;40.90;25.50
34815;DHT22;21030;53.912;15.214;2022-08-03T02:57:57;40.90;25.60
34815;DHT22;21030;53.912;15.214;2022-08-03T03:00:28;40.80;25.70
34815;DHT22;21030;53.912;15.214;2022-08-03T03:02:57;40.90;25.70
34815;DHT22;21030;53.912;15.214;2022-08-03T03:05:27;41.00;25.70
34815;DHT22;21030;53.912;15.214;2022-08-03T03:08:16;40.80;25.70
34815;DHT22;21030;53.912;15.214;2022-08-03T03:10:53;40.80;25.80
34815;DHT22;21030;53.912;15.214;2022-08-03T03:13:22;40.80;25.90
34815;DHT22;21030;53.912;15.214;2022-08-03T03:15:51;40.50;26.10
34815;DHT22;21030;53.912;15.214;2022-08-03T03:18:19;40.00;26.70
34815;DHT22;21030;53.912;15.214;2022-08-03T03:20:52;40.30;26.70
34815;DHT22;21030;53.912;15.214;2022-08-03T03:23:21;40.60;26.40
34815;DHT22;21030;53.912;15.214;2022-08-03T03:25:49;40.60;26.30
34815;DHT22;21030;53.912;15.214;2022-08-03T03:28:17;40.40;26.40
34815;DHT22;21030;53.912;15.214;2022-08-03T03:30:44;40.40;26.50
34815;DHT22;21030;53.912;15.214;2022-08-03T03:33:19;40.50;26.20
34815;DHT22;21030;53.912;15.214;2022-08-03T03:35:46;40.70;26.30
34815;DHT22;21030;53.912;15.214;2022-08-03T03:38:14;40.80;26.50
34815;DHT22;21030;53.912;15.214;2022-08-03T03:40:41;41.10;26.30
34815;DHT22;21030;53.912;15.214;2022-08-03T03:43:10;41.20;26.30
34815;DHT22;21030;53.912;15.214;2022-08-03T03:45:40;41.30;26.50
34815;DHT22;21030;53.912;15.214;2022-08-03T03:48:08;41.30;26.60
34815;DHT22;21030;53.912;15.214;2022-08-03T03:50:36;41.40;26.10
34815;DHT22;21030;53.912;15.214;2022-08-03T03:53:10;41.40;25.90
34815;DHT22;21030;53.912;15.214;2022-08-03T03:55:37;41.40;25.70
34815;DHT22;21030;53.912;15.214;2022-08-03T03:58:26;41.40;25.90
34815;DHT22;21030;53.912;15.214;2022-08-03T04:00:53;41.50;25.90
34815;DHT22;21030;53.912;15.214;2022-08-03T04:03:20;41.50;26.00
34815;DHT22;21030;53.912;15.214;2022-08-03T04:05:47;41.60;25.80
34815;DHT22;21030;53.912;15.214;2022-08-03T04:08:33;41.70;25.80
34815;DHT22;21030;53.912;15.214;2022-08-03T04:16:34;41.90;25.70
34815;DHT22;21030;53.912;15.214;2022-08-03T04:19:11;41.50;26.00
34815;DHT22;21030;53.912;15.214;2022-08-03T04:21:43;41.30;26.30
34815;DHT22;21030;53.912;15.214;2022-08-03T04:24:14;41.30;26.30
34815;DHT22;21030;53.912;15.214;2022-08-03T04:26:42;41.20;26.20
34815;DHT22;21030;53.912;15.214;2022-08-03T04:29:17;41.10;26.30
34815;DHT22;21030;53.912;15.214;2022-08-03T04:31:46;41.20;26.30
34815;DHT22;21030;53.912;15.214;2022-08-03T04:34:14;41.10;26.10
34815;DHT22;21030;53.912;15.214;2022-08-03T04:36:47;41.10;26.10
34815;DHT22;21030;53.912;15.214;2022-08-03T04:39:23;41.30;26.80
34815;DHT22;21030;53.912;15.214;2022-08-03T04:41:55;41.40;26.10
34815;DHT22;21030;53.912;15.214;2022-08-03T04:44:40;41.60;25.60
34815;DHT22;21030;53.912;15.214;2022-08-03T04:47:08;41.80;25.40
34815;DHT22;21030;53.912;15.214;2022-08-03T04:49:36;42.00;25.50
34815;DHT22;21030;53.912;15.214;2022-08-03T04:52:06;42.20;25.40
34815;DHT22;21030;53.912;15.214;2022-08-03T04:54:44;42.20;25.00
34815;DHT22;21030;53.912;15.214;2022-08-03T04:57:17;42.30;25.10
34815;DHT22;21030;53.912;15.214;2022-08-03T04:59:50;42.30;25.60
34815;DHT22;21030;53.912;15.214;2022-08-03T05:02:28;42.50;25.10
34815;DHT22;21030;53.912;15.214;2022-08-03T05:04:56;42.60;25.10
34815;DHT22;21030;53.912;15.214;2022-08-03T05:07:23;42.80;25.00
34815;DHT22;21030;53.912;15.214;2022-08-03T05:09:51;42.80;24.80
34815;DHT22;21030;53.912;15.214;2022-08-03T05:12:28;42.90;25.10
34815;DHT22;21030;53.912;15.214;2022-08-03T05:15:00;42.90;24.80
34815;DHT22;21030;53.912;15.214;2022-08-03T05:17:27;42.80;24.70
34815;DHT22;21030;53.912;15.214;2022-08-03T05:19:55;42.40;24.80
34815;DHT22;21030;53.912;15.214;2022-08-03T05:22:22;42.60;25.00
34815;DHT22;21030;53.912;15.214;2022-08-03T05:24:50;42.80;24.90
34815;DHT22;21030;53.912;15.214;2022-08-03T05:27:17;42.80;24.80
34815;DHT22;21030;53.912;15.214;2022-08-03T05:29:48;42.70;24.70
34815;DHT22;21030;53.912;15.214;2022-08-03T05:32:16;42.30;24.90
34815;DHT22;21030;53.912;15.214;2022-08-03T05:34:43;43.00;25.00
34815;DHT22;21030;53.912;15.214;2022-08-03T05:37:10;43.30;24.50
34815;DHT22;21030;53.912;15.214;2022-08-03T05:39:38;43.30;24.30
34815;DHT22;21030;53.912;15.214;2022-08-03T05:42:05;43.80;24.20
34815;DHT22;21030;53.912;15.214;2022-08-03T05:44:32;43.60;24.30
34815;DHT22;21030;53.912;15.214;2022-08-03T05:47:00;44.00;24.20
34815;DHT22;21030;53.912;15.214;2022-08-03T05:49:27;44.00;24.40
34815;DHT22;21030;53.912;15.214;2022-08-03T05:51:54;44.10;23.70
34815;DHT22;21030;53.912;15.214;2022-08-03T05:54:38;44.00;23.90
34815;DHT22;21030;53.912;15.214;2022-08-03T05:57:24;44.00;24.00
34815;DHT22;21030;53.912;15.214;2022-08-03T05:59:51;44.20;24.30
34815;DHT22;21030;53.912;15.214;2022-08-03T06:02:27;43.90;24.40
34815;DHT22;21030;53.912;15.214;2022-08-03T06:04:54;43.80;24.70
34815;DHT22;21030;53.912;15.214;2022-08-03T06:07:21;43.70;24.60
34815;DHT22;21030;53.912;15.214;2022-08-03T06:09:48;43.60;24.70
34815;DHT22;21030;53.912;15.214;2022-08-03T06:12:35;43.70;24.90
34815;DHT22;21030;53.912;15.214;2022-08-03T06:15:03;44.10;24.90
34815;DHT22;21030;53.912;15.214;2022-08-03T06:17:33;44.20;24.80
34815;DHT22;21030;53.912;15.214;2022-08-03T06:20:04;44.10;24.40
34815;DHT22;21030;53.912;15.214;2022-08-03T06:22:31;44.40;24.30
34815;DHT22;21030;53.912;15.214;2022-08-03T06:24:58;44.80;24.10
34815;DHT22;21030;53.912;15.214;2022-08-03T06:27:33;45.30;24.00
34815;DHT22;21030;53.912;15.214;2022-08-03T06:30:03;45.50;23.60
34815;DHT22;21030;53.912;15.214;2022-08-03T06:32:31;45.50;23.60
34815;DHT22;21030;53.912;15.214;2022-08-03T06:34:59;45.70;23.40
34815;DHT22;21030;53.912;15.214;2022-08-03T06:37:26;45.80;22.50
34815;DHT22;21030;53.912;15.214;2022-08-03T06:39:54;46.10;22.40
34815;DHT22;21030;53.912;15.214;2022-08-03T06:42:21;46.20;22.00
34815;DHT22;21030;53.912;15.214;2022-08-03T06:44:50;46.30;21.50
34815;DHT22;21030;53.912;15.214;2022-08-03T06:47:17;46.50;21.80
34815;DHT22;21030;53.912;15.214;2022-08-03T06:49:45;46.80;21.20
34815;DHT22;21030;53.912;15.214;2022-08-03T06:52:32;46.80;21.10
34815;DHT22;21030;53.912;15.214;2022-08-03T06:55:04;46.60;20.60
34815;DHT22;21030;53.912;15.214;2022-08-03T06:57:31;46.50;21.00
34815;DHT22;21030;53.912;15.214;2022-08-03T06:59:58;46.90;20.90
34815;DHT22;21030;53.912;15.214;2022-08-03T07:02:37;46.80;20.80
34815;DHT22;21030;53.912;15.214;2022-08-03T07:05:06;46.70;21.20
34815;DHT22;21030;53.912;15.214;2022-08-03T07:07:34;46.80;21.30
34815;DHT22;21030;53.912;15.214;2022-08-03T07:10:01;46.80;21.50
34815;DHT22;21030;53.912;15.214;2022-08-03T07:12:29;46.70;21.20
34815;DHT22;21030;53.912;15.214;2022-08-03T07:14:58;46.10;20.60
34815;DHT22;21030;53.912;15.214;2022-08-03T07:17:29;45.80;20.60
34815;DHT22;21030;53.912;15.214;2022-08-03T07:19:57;45.50;20.60
34815;DHT22;21030;53.912;15.214;2022-08-03T07:22:24;45.80;21.00
34815;DHT22;21030;53.912;15.214;2022-08-03T07:24:51;46.10;21.20
34815;DHT22;21030;53.912;15.214;2022-08-03T07:27:18;46.10;21.20
34815;DHT22;21030;53.912;15.214;2022-08-03T07:29:45;46.20;21.20
34815;DHT22;21030;53.912;15.214;2022-08-03T07:32:12;46.70;21.60
34815;DHT22;21030;53.912;15.214;2022-08-03T07:34:40;46.80;21.30
34815;DHT22;21030;53.912;15.214;2022-08-03T07:37:06;47.40;20.60
34815;DHT22;21030;53.912;15.214;2022-08-03T07:39:33;48.00;20.00
34815;DHT22;21030;53.912;15.214;2022-08-03T07:42:00;48.20;19.80
34815;DHT22;21030;53.912;15.214;2022-08-03T07:44:27;48.40;19.40
34815;DHT22;21030;53.912;15.214;2022-08-03T07:46:55;48.70;19.30
34815;DHT22;21030;53.912;15.214;2022-08-03T07:49:23;49.30;19.30
34815;DHT22;21030;53.912;15.214;2022-08-03T07:51:50;49.60;18.50
34815;DHT22;21030;53.912;15.214;2022-08-03T07:54:37;50.00;18.60
34815;DHT22;21030;53.912;15.214;2022-08-03T07:57:04;50.00;18.10
34815;DHT22;21030;53.912;15.214;2022-08-03T07:59:32;50.10;18.00
34815;DHT22;21030;53.912;15.214;2022-08-03T08:02:20;50.30;17.80
34815;DHT22;21030;53.912;15.214;2022-08-03T08:04:47;50.40;17.30
34815;DHT22;21030;53.912;15.214;2022-08-03T08:07:15;50.90;17.40
34815;DHT22;21030;53.912;15.214;2022-08-03T08:09:43;50.80;17.50
34815;DHT22;21030;53.912;15.214;2022-08-03T08:12:10;51.20;17.30
34815;DHT22;21030;53.912;15.214;2022-08-03T08:14:41;51.80;17.00
34815;DHT22;21030;53.912;15.214;2022-08-03T08:17:12;51.30;16.60
34815;DHT22;21030;53.912;15.214;2022-08-03T08:19:39;51.00;16.00
34815;DHT22;21030;53.912;15.214;2022-08-03T08:22:17;50.50;15.90
34815;DHT22;21030;53.912;15.214;2022-08-03T08:24:55;49.70;16.20
34815;DHT22;21030;53.912;15.214;2022-08-03T08:27:22;49.30;16.90
34815;DHT22;21030;53.912;15.214;2022-08-03T08:29:49;49.10;16.80
34815;DHT22;21030;53.912;15.214;2022-08-03T08:32:22;48.90;16.80
34815;DHT22;21030;53.912;15.214;2022-08-03T08:34:49;48.80;17.10
34815;DHT22;21030;53.912;15.214;2022-08-03T08:37:16;48.60;17.00
34815;DHT22;21030;53.912;15.214;2022-08-03T08:39:43;48.60;17.00
34815;DHT22;21030;53.912;15.214;2022-08-03T08:42:11;48.60;17.70
34815;DHT22;21030;53.912;15.214;2022-08-03T08:44:38;48.70;17.00
34815;DHT22;21030;53.912;15.214;2022-08-03T08:47:07;48.40;17.10
34815;DHT22;21030;53.912;15.214;2022-08-03T08:49:35;48.20;17.70
34815;DHT22;21030;53.912;15.214;2022-08-03T08:52:07;48.50;17.50
34815;DHT22;21030;53.912;15.214;2022-08-03T08:55:04;49.40;17.50
34815;DHT22;21030;53.912;15.214;2022-08-03T08:57:43;49.40;17.20
34815;DHT22;21030;53.912;15.214;2022-08-03T09:00:12;49.40;17.20
34815;DHT22;21030;53.912;15.214;2022-08-03T09:02:41;49.20;17.50
34815;DHT22;21030;53.912;15.214;2022-08-03T09:05:17;49.40;17.20
34815;DHT22;21030;53.912;15.214;2022-08-03T09:07:46;49.10;17.20
34815;DHT22;21030;53.912;15.214;2022-08-03T09:10:15;49.10;17.60
34815;DHT22;21030;53.912;15.214;2022-08-03T09:12:47;49.40;17.30
34815;DHT22;21030;53.912;15.214;2022-08-03T09:15:29;49.50;17.10
34815;DHT22;21030;53.912;15.214;2022-08-03T09:18:01;49.70;16.70
34815;DHT22;21030;53.912;15.214;2022-08-03T09:20:31;49.70;16.70
34815;DHT22;21030;53.912;15.214;2022-08-03T09:23:03;49.70;16.80
34815;DHT22;21030;53.912;15.214;2022-08-03T09:25:57;49.40;16.70
34815;DHT22;21030;53.912;15.214;2022-08-03T09:28:33;49.20;17.10
34815;DHT22;21030;53.912;15.214;2022-08-03T09:31:38;49.40;17.20
34815;DHT22;21030;53.912;15.214;2022-08-03T09:34:11;49.40;17.10
34815;DHT22;21030;53.912;15.214;2022-08-03T09:36:41;49.40;17.10
34815;DHT22;21030;53.912;15.214;2022-08-03T09:39:18;49.90;17.40
34815;DHT22;21030;53.912;15.214;2022-08-03T09:42:16;50.10;16.80
34815;DHT22;21030;53.912;15.214;2022-08-03T09:44:45;50.30;17.00
34815;DHT22;21030;53.912;15.214;2022-08-03T09:47:15;50.50;16.70
34815;DHT22;21030;53.912;15.214;2022-08-03T09:49:57;50.10;16.50
34815;DHT22;21030;53.912;15.214;2022-08-03T09:52:30;50.50;16.80
34815;DHT22;21030;53.912;15.214;2022-08-03T09:55:16;50.40;16.60
34815;DHT22;21030;53.912;15.214;2022-08-03T09:58:06;50.50;16.30
34815;DHT22;21030;53.912;15.214;2022-08-03T10:00:52;50.90;16.30
34815;DHT22;21030;53.912;15.214;2022-08-03T10:03:21;50.90;16.10
34815;DHT22;21030;53.912;15.214;2022-08-03T10:05:48;51.30;16.40
34815;DHT22;21030;53.912;15.214;2022-08-03T10:08:17;51.90;16.30
34815;DHT22;21030;53.912;15.214;2022-08-03T10:10:46;51.40;16.00
34815;DHT22;21030;53.912;15.214;2022-08-03T10:13:15;50.90;16.20
34815;DHT22;21030;53.912;15.214;2022-08-03T10:15:43;50.90;16.50
34815;DHT22;21030;53.912;15.214;2022-08-03T10:18:30;50.40;16.90
34815;DHT22;21030;53.912;15.214;2022-08-03T10:21:07;50.50;16.90
34815;DHT22;21030;53.912;15.214;2022-08-03T10:23:37;50.70;17.00
34815;DHT22;21030;53.912;15.214;2022-08-03T10:26:06;50.90;16.80
34815;DHT22;21030;53.912;15.214;2022-08-03T10:28:36;50.80;16.50
34815;DHT22;21030;53.912;15.214;2022-08-03T10:31:12;50.90;16.60
34815;DHT22;21030;53.912;15.214;2022-08-03T10:33:45;51.20;16.40
34815;DHT22;21030;53.912;15.214;2022-08-03T10:36:19;50.90;16.40
34815;DHT22;21030;53.912;15.214;2022-08-03T10:38:50;50.90;16.40
34815;DHT22;21030;53.912;15.214;2022-08-03T10:41:22;50.90;16.70
34815;DHT22;21030;53.912;15.214;2022-08-03T10:44:13;50.70;16.40
34815;DHT22;21030;53.912;15.214;2022-08-03T10:46:43;51.50;16.70
34815;DHT22;21030;53.912;15.214;2022-08-03T10:49:15;51.50;16.80
34815;DHT22;21030;53.912;15.214;2022-08-03T10:52:01;51.40;16.60
34815;DHT22;21030;53.912;15.214;2022-08-03T10:54:44;50.80;16.40
34815;DHT22;21030;53.912;15.214;2022-08-03T10:57:52;51.00;16.70
34815;DHT22;21030;53.912;15.214;2022-08-03T11:00:26;51.50;16.50
34815;DHT22;21030;53.912;15.214;2022-08-03T11:03:03;51.90;16.40
34815;DHT22;21030;53.912;15.214;2022-08-03T11:05:37;51.90;16.30
34815;DHT22;21030;53.912;15.214;2022-08-03T11:08:28;52.40;16.40
34815;DHT22;21030;53.912;15.214;2022-08-03T11:14:03;53.20;16.10
34815;DHT22;21030;53.912;15.214;2022-08-03T11:16:36;52.90;15.70
34815;DHT22;21030;53.912;15.214;2022-08-03T11:19:20;52.80;16.60
34815;DHT22;21030;53.912;15.214;2022-08-03T11:21:55;53.50;16.10
34815;DHT22;21030;53.912;15.214;2022-08-03T11:27:23;52.80;15.60
34815;DHT22;21030;53.912;15.214;2022-08-03T11:35:26;51.20;16.30
34815;DHT22;21030;53.912;15.214;2022-08-03T11:40:46;52.20;16.70
34815;DHT22;21030;53.912;15.214;2022-08-03T11:46:09;52.90;15.80
34815;DHT22;21030;53.912;15.214;2022-08-03T11:49:04;52.50;15.90
34815;DHT22;21030;53.912;15.214;2022-08-03T11:51:37;52.30;15.90
34815;DHT22;21030;53.912;15.214;2022-08-03T11:54:06;51.90;15.80
34815;DHT22;21030;53.912;15.214;2022-08-03T11:56:49;52.00;16.40
34815;DHT22;21030;53.912;15.214;2022-08-03T11:59:16;52.00;16.20
34815;DHT22;21030;53.912;15.214;2022-08-03T12:01:49;51.30;16.30
34815;DHT22;21030;53.912;15.214;2022-08-03T12:04:16;51.70;16.20
34815;DHT22;21030;53.912;15.214;2022-08-03T12:07:00;51.70;16.30
34815;DHT22;21030;53.912;15.214;2022-08-03T12:09:27;52.10;16.50
34815;DHT22;21030;53.912;15.214;2022-08-03T12:11:54;52.40;16.10
34815;DHT22;21030;53.912;15.214;2022-08-03T12:14:27;52.40;16.10
34815;DHT22;21030;53.912;15.214;2022-08-03T12:17:15;52.10;16.00
34815;DHT22;21030;53.912;15.214;2022-08-03T12:19:43;52.00;16.40
34815;DHT22;21030;53.912;15.214;2022-08-03T12:22:11;51.90;16.20
34815;DHT22;21030;53.912;15.214;2022-08-03T12:24:42;51.60;16.30
34815;DHT22;21030;53.912;15.214;2022-08-03T12:27:25;51.90;16.50
34815;DHT22;21030;53.912;15.214;2022-08-03T12:29:55;52.10;16.40
34815;DHT22;21030;53.912;15.214;2022-08-03T12:32:28;52.60;16.20
34815;DHT22;21030;53.912;15.214;2022-08-03T12:34:56;53.00;16.20
34815;DHT22;21030;53.912;15.214;2022-08-03T12:37:28;52.60;15.80
34815;DHT22;21030;53.912;15.214;2022-08-03T12:39:57;52.10;16.00
34815;DHT22;21030;53.912;15.214;2022-08-03T12:42:37;51.70;16.30
34815;DHT22;21030;53.912;15.214;2022-08-03T12:45:24;51.40;16.50
34815;DHT22;21030;53.912;15.214;2022-08-03T12:52:52;52.30;16.40
34815;DHT22;21030;53.912;15.214;2022-08-03T12:55:21;52.30;16.30
34815;DHT22;21030;53.912;15.214;2022-08-03T12:57:48;52.30;16.30
34815;DHT22;21030;53.912;15.214;2022-08-03T13:00:17;52.00;16.00
34815;DHT22;21030;53.912;15.214;2022-08-03T13:03:02;52.40;16.40
34815;DHT22;21030;53.912;15.214;2022-08-03T13:05:49;51.30;16.10
34815;DHT22;21030;53.912;15.214;2022-08-03T13:08:21;50.90;16.50
34815;DHT22;21030;53.912;15.214;2022-08-03T13:10:49;50.10;17.00
34815;DHT22;21030;53.912;15.214;2022-08-03T13:13:16;49.90;17.20
34815;DHT22;21030;53.912;15.214;2022-08-03T13:15:43;49.70;17.20
34815;DHT22;21030;53.912;15.214;2022-08-03T13:18:13;50.10;17.50
34815;DHT22;21030;53.912;15.214;2022-08-03T13:20:43;51.00;17.30
34815;DHT22;21030;53.912;15.214;2022-08-03T13:23:10;51.00;17.00
34815;DHT22;21030;53.912;15.214;2022-08-03T13:25:48;51.50;16.70
34815;DHT22;21030;53.912;15.214;2022-08-03T13:28:21;52.30;16.60
34815;DHT22;21030;53.912;15.214;2022-08-03T13:30:48;52.60;16.30
34815;DHT22;21030;53.912;15.214;2022-08-03T13:33:16;52.90;16.10
34815;DHT22;21030;53.912;15.214;2022-08-03T13:35:43;53.40;16.10
34815;DHT22;21030;53.912;15.214;2022-08-03T13:38:10;53.60;16.00
34815;DHT22;21030;53.912;15.214;2022-08-03T13:40:37;53.80;15.90
34815;DHT22;21030;53.912;15.214;2022-08-03T13:43:08;53.10;15.90
34815;DHT22;21030;53.912;15.214;2022-08-03T13:45:35;52.90;16.00
34815;DHT22;21030;53.912;15.214;2022-08-03T13:48:02;52.10;16.10
34815;DHT22;21030;53.912;15.214;2022-08-03T13:50:31;51.60;16.30
34815;DHT22;21030;53.912;15.214;2022-08-03T13:53:08;50.70;16.70
34815;DHT22;21030;53.912;15.214;2022-08-03T13:55:35;50.10;17.00
34815;DHT22;21030;53.912;15.214;2022-08-03T13:58:02;50.50;17.50
34815;DHT22;21030;53.912;15.214;2022-08-03T14:00:34;50.50;17.10
34815;DHT22;21030;53.912;15.214;2022-08-03T14:03:02;50.30;17.30
34815;DHT22;21030;53.912;15.214;2022-08-03T14:05:40;50.10;17.40
34815;DHT22;21030;53.912;15.214;2022-08-03T14:08:07;50.70;17.20
34815;DHT22;21030;53.912;15.214;2022-08-03T14:10:36;51.40;17.20
34815;DHT22;21030;53.912;15.214;2022-08-03T14:13:04;51.40;17.20
34815;DHT22;21030;53.912;15.214;2022-08-03T14:15:32;50.80;17.20
34815;DHT22;21030;53.912;15.214;2022-08-03T14:18:05;50.60;17.20
34815;DHT22;21030;53.912;15.214;2022-08-03T14:20:32;50.70;17.20
34815;DHT22;21030;53.912;15.214;2022-08-03T14:23:05;50.50;16.90
34815;DHT22;21030;53.912;15.214;2022-08-03T14:25:32;50.50;17.30
34815;DHT22;21030;53.912;15.214;2022-08-03T14:28:17;51.50;17.40
34815;DHT22;21030;53.912;15.214;2022-08-03T14:30:44;51.80;17.20
34815;DHT22;21030;53.912;15.214;2022-08-03T14:33:11;51.40;16.90
34815;DHT22;21030;53.912;15.214;2022-08-03T14:35:38;51.40;16.60
34815;DHT22;21030;53.912;15.214;2022-08-03T14:38:06;51.80;17.10
34815;DHT22;21030;53.912;15.214;2022-08-03T14:40:33;51.60;17.10
34815;DHT22;21030;53.912;15.214;2022-08-03T14:43:00;51.50;16.70
34815;DHT22;21030;53.912;15.214;2022-08-03T14:45:28;51.00;17.20
34815;DHT22;21030;53.912;15.214;2022-08-03T14:47:56;50.80;16.90
34815;DHT22;21030;53.912;15.214;2022-08-03T14:50:45;50.50;17.50
34815;DHT22;21030;53.912;15.214;2022-08-03T14:53:18;50.30;17.30
34815;DHT22;21030;53.912;15.214;2022-08-03T14:55:46;50.40;17.40
34815;DHT22;21030;53.912;15.214;2022-08-03T14:58:17;50.40;17.30
34815;DHT22;21030;53.912;15.214;2022-08-03T15:00:48;50.20;17.30
34815;DHT22;21030;53.912;15.214;2022-08-03T15:03:16;49.60;17.40
34815;DHT22;21030;53.912;15.214;2022-08-03T15:05:46;49.60;17.90
34815;DHT22;21030;53.912;15.214;2022-08-03T15:08:13;49.40;17.80
34815;DHT22;21030;53.912;15.214;2022-08-03T15:10:40;49.90;18.00
34815;DHT22;21030;53.912;15.214;2022-08-03T15:13:12;49.90;18.00
34815;DHT22;21030;53.912;15.214;2022-08-03T15:15:39;49.30;18.10
34815;DHT22;21030;53.912;15.214;2022-08-03T15:18:07;48.70;18.00
34815;DHT22;21030;53.912;15.214;2022-08-03T15:20:36;49.00;18.30
34815;DHT22;21030;53.912;15.214;2022-08-03T15:23:15;49.60;18.70
34815;DHT22;21030;53.912;15.214;2022-08-03T15:25:44;49.70;18.60
34815;DHT22;21030;53.912;15.214;2022-08-03T15:28:31;49.70;18.30
34815;DHT22;21030;53.912;15.214;2022-08-03T15:30:59;49.80;18.30
34815;DHT22;21030;53.912;15.214;2022-08-03T15:33:27;49.60;18.30
34815;DHT22;21030;53.912;15.214;2022-08-03T15:35:55;48.70;18.40
34815;DHT22;21030;53.912;15.214;2022-08-03T15:38:22;47.30;19.10
34815;DHT22;21030;53.912;15.214;2022-08-03T15:40:53;46.90;19.70
34815;DHT22;21030;53.912;15.214;2022-08-03T15:43:21;46.40;20.00
34815;DHT22;21030;53.912;15.214;2022-08-03T15:45:48;45.70;20.30
34815;DHT22;21030;53.912;15.214;2022-08-03T15:48:35;45.40;20.60
34815;DHT22;21030;53.912;15.214;2022-08-03T15:51:03;45.40;20.70
34815;DHT22;21030;53.912;15.214;2022-08-03T15:53:31;45.40;20.80
34815;DHT22;21030;53.912;15.214;2022-08-03T15:56:00;45.50;21.10
34815;DHT22;21030;53.912;15.214;2022-08-03T15:58:32;45.70;20.90
34815;DHT22;21030;53.912;15.214;2022-08-03T16:01:19;46.10;21.00
34815;DHT22;21030;53.912;15.214;2022-08-03T16:03:47;46.00;20.90
34815;DHT22;21030;53.912;15.214;2022-08-03T16:06:14;45.90;20.80
34815;DHT22;21030;53.912;15.214;2022-08-03T16:08:41;46.00;21.10
34815;DHT22;21030;53.912;15.214;2022-08-03T16:11:09;46.30;21.10
34815;DHT22;21030;53.912;15.214;2022-08-03T16:13:36;46.70;20.80
34815;DHT22;21030;53.912;15.214;2022-08-03T16:16:23;46.80;20.80
34815;DHT22;21030;53.912;15.214;2022-08-03T16:18:50;47.10;20.80
34815;DHT22;21030;53.912;15.214;2022-08-03T16:21:18;46.90;20.60